Back to Top

Language: 

My Weather Underground Personal Weather Station Historical Data with Graphs...

Delerius Weather Station Historical Data
Daily Summary for April 27, 2017 Units:  Metric    English   Both
« Previous Day
Next Day »
Daily Weekly Monthly Yearly Custom
  High: Low: Average:
Temperature: 11.3 °C 0.5 °C 6.9 °C
Dew Point: 8.6 °C -1.4 °C 4.4 °C
Humidity: 95 % 73 % 85 %
Wind Speed: 20.9 km/h 0 km/h 7.6 km/h
Wind Gust: 37 km/h - -
Wind:- - WNW
Pressure: 1020.5 hPa 1014.8 hPa -
Precipitation: 4.32 mm    
Historical Graphs
 
 
Tabular Data for April 27, 2017
Time Temperature Dew Point Pressure Wind Wind Speed Wind Gust Humidity Rainfall Rate (Hourly) solar Conditions
00:02 1.1 °C -1.2 °C 1020.5 hPa Calm     85 % 0 mm 0 W/m2
00:07 0.9 °C -1.2 °C 1020.5 hPa Calm     86 % 0 mm 0 W/m2
00:12 0.8 °C -1.3 °C 1020.5 hPa Calm     86 % 0 mm 0 W/m2
00:17 0.7 °C -1.4 °C 1020.5 hPa Calm   1.6 km/h 86 % 0 mm 0 W/m2
00:22 0.7 °C -1.2 °C 1020.5 hPa Calm   1.6 km/h 87 % 0 mm 0 W/m2
00:27 0.6 °C -1.3 °C 1020.5 hPa Calm     87 % 0 mm 0 W/m2
00:32 0.6 °C -1.3 °C 1020.5 hPa Calm     87 % 0 mm 0 W/m2
00:37 0.6 °C -1.2 °C 1020.5 hPa Calm   1.6 km/h 88 % 0 mm 0 W/m2
00:42 0.6 °C -1.2 °C 1020.5 hPa Calm   1.6 km/h 88 % 0 mm 0 W/m2
00:47 0.5 °C -1.3 °C 1020.2 hPa Calm     88 % 0 mm 0 W/m2
00:52 0.5 °C -1.3 °C 1020.2 hPa Calm     88 % 0 mm 0 W/m2
00:57 0.5 °C -1.1 °C 1020.2 hPa Calm     89 % 0 mm 0 W/m2
01:03 0.6 °C -1 °C 1020.2 hPa Calm     89 % 0 mm 0 W/m2
01:08 0.8 °C -0.7 °C 1020.2 hPa Calm     90 % 0 mm 0 W/m2
01:13 0.9 °C -0.7 °C 1020.2 hPa Calm     89 % 0 mm 0 W/m2
01:18 1 °C -0.6 °C 1020.2 hPa Calm     89 % 0 mm 0 W/m2
01:23 1.1 °C -0.5 °C 1020.2 hPa Calm     89 % 0 mm 0 W/m2
01:28 1.2 °C -0.4 °C 1020.2 hPa Calm     89 % 0 mm 0 W/m2
01:33 1.2 °C -0.4 °C 1020.2 hPa Calm     89 % 0 mm 0 W/m2
01:38 1.3 °C -0.3 °C 1020.2 hPa Calm     89 % 0 mm 0 W/m2
01:43 1.4 °C -0.2 °C 1020.2 hPa Calm     89 % 0 mm 0 W/m2
01:48 1.6 °C 0 °C 1020.2 hPa Calm     89 % 0 mm 0 W/m2
01:53 1.7 °C 0.1 °C 1020.2 hPa Calm   1.6 km/h 89 % 0 mm 0 W/m2
01:58 1.8 °C 0 °C 1019.9 hPa Calm   1.6 km/h 88 % 0 mm 0 W/m2
02:03 1.8 °C 0 °C 1019.9 hPa Calm     88 % 0 mm 0 W/m2
02:08 1.9 °C 0.1 °C 1019.9 hPa Calm     88 % 0 mm 0 W/m2
02:13 2 °C 0.2 °C 1019.9 hPa Calm     88 % 0 mm 0 W/m2
02:18 2.1 °C 0.3 °C 1019.5 hPa Calm   1.6 km/h 88 % 0 mm 0 W/m2
02:23 2.1 °C 0.3 °C 1019.5 hPa Calm   1.6 km/h 88 % 0 mm 0 W/m2
02:28 2.2 °C 0.4 °C 1019.5 hPa NW 1.6 km/h 8 km/h 88 % 0 mm 0 W/m2
02:33 2.3 °C 0.5 °C 1019.5 hPa NW 3.2 km/h 8 km/h 88 % 0 mm 0 W/m2
02:38 2.4 °C 0.4 °C 1019.5 hPa NW 3.2 km/h 8 km/h 87 % 0 mm 0 W/m2
02:43 2.5 °C 0.4 °C 1019.5 hPa NW 3.2 km/h 8 km/h 86 % 0 mm 0 W/m2
02:48 2.6 °C 0.3 °C 1019.5 hPa NW 1.6 km/h 8 km/h 85 % 0 mm 0 W/m2
02:53 2.6 °C 0.2 °C 1019.5 hPa NW 1.6 km/h 6.4 km/h 84 % 0 mm 0 W/m2
02:58 2.6 °C 0 °C 1019.5 hPa NW 1.6 km/h 6.4 km/h 83 % 0 mm 0 W/m2
03:03 2.5 °C -0.1 °C 1019.5 hPa NW 1.6 km/h 4.8 km/h 83 % 0 mm 0 W/m2
03:08 2.5 °C -0.1 °C 1019.5 hPa NW 1.6 km/h 6.4 km/h 83 % 0 mm 0 W/m2
03:13 2.5 °C -0.1 °C 1019.5 hPa NW 3.2 km/h 6.4 km/h 83 % 0 mm 0 W/m2
03:18 2.4 °C -0.2 °C 1019.2 hPa NW 3.2 km/h 6.4 km/h 83 % 0 mm 0 W/m2
03:24 2.5 °C -0.1 °C 1019.2 hPa WNW 4.8 km/h 9.7 km/h 83 % 0 mm 0 W/m2
03:29 2.6 °C 0 °C 1019.2 hPa WNW 4.8 km/h 9.7 km/h 83 % 0 mm 0 W/m2
03:34 2.7 °C -0.1 °C 1019.2 hPa WNW 4.8 km/h 9.7 km/h 82 % 0 mm 0 W/m2
03:39 2.7 °C -0.1 °C 1019.2 hPa WNW 4.8 km/h 8 km/h 82 % 0 mm 0 W/m2
03:44 2.7 °C -0.1 °C 1019.2 hPa WNW 3.2 km/h 8 km/h 82 % 0 mm 0 W/m2
03:49 2.7 °C -0.2 °C 1019.2 hPa WNW 3.2 km/h 8 km/h 81 % 0 mm 0 W/m2
03:54 2.7 °C -0.2 °C 1019.2 hPa WNW 1.6 km/h 8 km/h 81 % 0 mm 0 W/m2
03:59 2.7 °C -0.2 °C 1019.2 hPa WNW 1.6 km/h 6.4 km/h 81 % 0 mm 0 W/m2
04:04 2.6 °C -0.3 °C 1019.2 hPa WNW 1.6 km/h 6.4 km/h 81 % 0 mm 0 W/m2
04:09 2.6 °C -0.3 °C 1019.2 hPa WNW 1.6 km/h 8 km/h 81 % 0 mm 0 W/m2
04:14 2.6 °C -0.3 °C 1019.2 hPa WNW 1.6 km/h 8 km/h 81 % 0 mm 0 W/m2
04:19 2.5 °C -0.4 °C 1018.8 hPa WNW 3.2 km/h 6.4 km/h 81 % 0 mm 0 W/m2
04:24 2.4 °C -0.6 °C 1018.8 hPa WNW 4.8 km/h 9.7 km/h 81 % 0 mm 0 W/m2
04:29 2.5 °C -0.4 °C 1018.8 hPa WNW 4.8 km/h 9.7 km/h 81 % 0 mm 0 W/m2
04:34 2.5 °C -0.4 °C 1018.8 hPa WNW 3.2 km/h 9.7 km/h 81 % 0 mm 0 W/m2
04:39 2.6 °C -0.3 °C 1018.8 hPa WNW 3.2 km/h 8 km/h 81 % 0 mm 0 W/m2
04:44 2.6 °C -0.5 °C 1018.8 hPa WNW 3.2 km/h 8 km/h 80 % 0 mm 0 W/m2
04:49 2.6 °C -0.5 °C 1018.8 hPa WNW 1.6 km/h 8 km/h 80 % 0 mm 0 W/m2
04:54 2.6 °C -0.5 °C 1018.8 hPa WNW 1.6 km/h 6.4 km/h 80 % 0 mm 0 W/m2
04:59 2.6 °C -0.5 °C 1018.8 hPa WNW 1.6 km/h 6.4 km/h 80 % 0 mm 0 W/m2
05:04 2.5 °C -0.6 °C 1018.8 hPa WNW 1.6 km/h 4.8 km/h 80 % 0 mm 0 W/m2
05:09 2.4 °C -0.6 °C 1018.8 hPa WNW 1.6 km/h 8 km/h 81 % 0 mm 0 W/m2
05:14 2.3 °C -0.6 °C 1018.8 hPa WNW 1.6 km/h 8 km/h 81 % 0 mm 0 W/m2
05:19 2.3 °C -0.6 °C 1018.5 hPa WNW 1.6 km/h 4.8 km/h 81 % 0 mm 0 W/m2
05:20 2.3 °C -0.6 °C 1018.5 hPa WNW 1.6 km/h 4.8 km/h 81 % 0 mm 0 W/m2
05:25 2.3 °C -0.4 °C 1018.5 hPa WNW 3.2 km/h 9.7 km/h 82 % 0 mm 0 W/m2
05:31 2.3 °C -0.4 °C 1018.5 hPa WNW 3.2 km/h 9.7 km/h 82 % 0 mm 0 W/m2
05:36 2.3 °C -0.4 °C 1018.5 hPa WNW 3.2 km/h 8 km/h 82 % 0 mm 0 W/m2
05:41 2.4 °C -0.3 °C 1018.5 hPa WNW 4.8 km/h 9.7 km/h 82 % 0 mm 0 W/m2
05:46 2.4 °C -0.3 °C 1018.5 hPa WNW 3.2 km/h 9.7 km/h 82 % 0 mm 7 W/m2
05:51 2.6 °C 0 °C 1018.5 hPa WNW 1.6 km/h 8 km/h 83 % 0 mm 9 W/m2
05:56 2.6 °C 0 °C 1018.5 hPa WNW 1.6 km/h 6.4 km/h 83 % 0 mm 12 W/m2
06:01 2.7 °C 0.1 °C 1018.5 hPa WNW 3.2 km/h 9.7 km/h 83 % 0 mm 14 W/m2
06:06 2.9 °C 0.3 °C 1018.5 hPa WNW 3.2 km/h 9.7 km/h 83 % 0 mm 18 W/m2
06:11 3.1 °C 0.5 °C 1018.5 hPa WNW 1.6 km/h 8 km/h 83 % 0 mm 23 W/m2
06:16 3.1 °C 0.5 °C 1018.2 hPa WNW 1.6 km/h 3.2 km/h 83 % 0 mm 28 W/m2
06:21 3.2 °C 0.6 °C 1018.2 hPa Calm   3.2 km/h 83 % 0 mm 32 W/m2
06:26 3.3 °C 0.8 °C 1018.2 hPa WNW 1.6 km/h 9.7 km/h 84 % 0 mm 28 W/m2
06:31 3.5 °C 0.9 °C 1018.2 hPa West 3.2 km/h 11.3 km/h 83 % 0 mm 30 W/m2
06:36 3.7 °C 1.1 °C 1018.2 hPa West 4.8 km/h 11.3 km/h 83 % 0 mm 35 W/m2
06:41 3.9 °C 1.3 °C 1018.2 hPa West 4.8 km/h 11.3 km/h 83 % 0 mm 40 W/m2
06:46 4.1 °C 1.4 °C 1018.2 hPa West 4.8 km/h 11.3 km/h 83 % 0 mm 49 W/m2
06:51 4.3 °C 1.7 °C 1018.2 hPa WNW 4.8 km/h 11.3 km/h 83 % 0 mm 54 W/m2
06:56 4.4 °C 1.6 °C 1018.2 hPa WNW 4.8 km/h 11.3 km/h 82 % 0 mm 63 W/m2
07:01 4.6 °C 1.9 °C 1018.2 hPa WNW 3.2 km/h 9.7 km/h 83 % 0 mm 70 W/m2
07:06 4.7 °C 2.1 °C 1018.2 hPa WNW 3.2 km/h 11.3 km/h 83 % 0 mm 146 W/m2
07:11 5 °C 2.3 °C 1017.8 hPa West 4.8 km/h 12.9 km/h 83 % 0 mm 149 W/m2
07:16 5.3 °C 2.7 °C 1017.8 hPa West 8 km/h 19.3 km/h 83 % 0 mm 93 W/m2
07:21 5.6 °C 2.8 °C 1017.8 hPa West 9.7 km/h 19.3 km/h 82 % 0 mm 84 W/m2
07:26 5.7 °C 2.7 °C 1017.8 hPa West 8 km/h 16.1 km/h 81 % 0 mm 90 W/m2
07:31 5.8 °C 2.8 °C 1017.8 hPa WNW 8 km/h 17.7 km/h 81 % 0 mm 97 W/m2
07:36 5.9 °C 2.9 °C 1017.8 hPa WNW 9.7 km/h 20.9 km/h 81 % 0 mm 97 W/m2
07:41 6.1 °C 3.1 °C 1017.8 hPa WNW 9.7 km/h 20.9 km/h 81 % 0 mm 98 W/m2
07:46 6.1 °C 2.9 °C 1017.8 hPa WNW 12.9 km/h 29 km/h 80 % 0 mm 105 W/m2
07:51 6.2 °C 3.2 °C 1017.8 hPa West 16.1 km/h 29 km/h 81 % 0 mm 118 W/m2
07:56 6.2 °C 3.2 °C 1017.8 hPa WNW 14.5 km/h 29 km/h 81 % 0 mm 148 W/m2
08:01 6.3 °C 3.3 °C 1017.8 hPa WNW 12.9 km/h 25.7 km/h 81 % 0 mm 155 W/m2
08:07 6.4 °C 3.2 °C 1017.8 hPa WNW 12.9 km/h 22.5 km/h 80 % 0 mm 171 W/m2
08:12 6.6 °C 3.4 °C 1017.8 hPa WNW 11.3 km/h 24.1 km/h 80 % 0 mm 163 W/m2
08:17 6.8 °C 3.4 °C 1017.8 hPa WNW 11.3 km/h 24.1 km/h 79 % 0 mm 148 W/m2
08:22 6.9 °C 3.5 °C 1017.5 hPa WNW 12.9 km/h 24.1 km/h 79 % 0 mm 171 W/m2
08:27 7.1 °C 3.7 °C 1017.8 hPa WNW 12.9 km/h 22.5 km/h 79 % 0 mm 134 W/m2
08:32 7.2 °C 3.6 °C 1017.8 hPa WNW 12.9 km/h 24.1 km/h 78 % 0 mm 105 W/m2
08:37 7.2 °C 3.8 °C 1017.5 hPa WNW 12.9 km/h 24.1 km/h 79 % 0 mm 120 W/m2
08:42 7.2 °C 3.8 °C 1017.8 hPa WNW 12.9 km/h 29 km/h 79 % 0 mm 113 W/m2
08:47 7.2 °C 4 °C 1017.8 hPa WNW 14.5 km/h 29 km/h 80 % 0 mm 134 W/m2
08:52 7.2 °C 4.2 °C 1017.5 hPa WNW 12.9 km/h 25.7 km/h 81 % 0 mm 167 W/m2
08:57 7.2 °C 4.3 °C 1017.5 hPa WNW 12.9 km/h 25.7 km/h 82 % 0 mm 199 W/m2
09:02 7.3 °C 4.4 °C 1017.5 hPa WNW 12.9 km/h 25.7 km/h 82 % 0 mm 169 W/m2
09:07 7.3 °C 4.4 °C 1017.5 hPa WNW 12.9 km/h 25.7 km/h 82 % 0 mm 213 W/m2
09:09 7.3 °C 4.6 °C 1017.5 hPa WNW 12.9 km/h 25.7 km/h 83 % 0 mm 248 W/m2
09:14 7.4 °C 4.7 °C 1017.5 hPa WNW 12.9 km/h 29 km/h 83 % 0 mm 246 W/m2
09:19 7.6 °C 4.9 °C 1017.5 hPa WNW 14.5 km/h 29 km/h 83 % 0 mm 257 W/m2
09:24 7.7 °C 4.8 °C 1017.5 hPa WNW 16.1 km/h 25.7 km/h 82 % 0 mm 218 W/m2
09:29 7.8 °C 4.9 °C 1017.5 hPa WNW 16.1 km/h 29 km/h 82 % 0 mm 167 W/m2
09:34 7.8 °C 4.9 °C 1017.5 hPa West 16.1 km/h 29 km/h 82 % 0 mm 149 W/m2
09:39 7.8 °C 4.7 °C 1017.2 hPa West 14.5 km/h 25.7 km/h 81 % 0 mm 188 W/m2
09:44 7.9 °C 4.8 °C 1017.2 hPa West 14.5 km/h 25.7 km/h 81 % 0 mm 241 W/m2
09:49 8 °C 5.1 °C 1017.2 hPa West 14.5 km/h 25.7 km/h 82 % 0 mm 227 W/m2
09:54 8.2 °C 5.1 °C 1017.2 hPa WNW 12.9 km/h 24.1 km/h 81 % 0 mm 195 W/m2
09:59 8.2 °C 4.9 °C 1017.2 hPa WNW 14.5 km/h 29 km/h 80 % 0 mm 220 W/m2
10:04 8.3 °C 5.1 °C 1017.2 hPa WNW 16.1 km/h 29 km/h 80 % 0 mm 234 W/m2
10:09 8.4 °C 5.2 °C 1017.2 hPa WNW 16.1 km/h 30.6 km/h 80 % 0 mm 302 W/m2
10:14 8.7 °C 5.4 °C 1017.2 hPa WNW 16.1 km/h 32.2 km/h 80 % 0 mm 385 W/m2
10:19 8.9 °C 5.4 °C 1017.2 hPa WNW 16.1 km/h 32.2 km/h 79 % 0 mm 290 W/m2
10:29 9.2 °C 5.6 °C 1017.2 hPa WNW 17.7 km/h 35.4 km/h 78 % 0 mm 248 W/m2
10:34 9.2 °C 5.9 °C 1017.2 hPa WNW 17.7 km/h 35.4 km/h 80 % 0 mm 272 W/m2
10:39 9 °C 6.1 °C 1017.2 hPa WNW 17.7 km/h 32.2 km/h 82 % 0 mm 294 W/m2
10:44 8.8 °C 6.2 °C 1017.2 hPa WNW 16.1 km/h 30.6 km/h 84 % 0 mm 202 W/m2
10:49 8.6 °C 6.1 °C 1017.2 hPa WNW 14.5 km/h 29 km/h 84 % 0 mm 216 W/m2
10:54 8.5 °C 6.1 °C 1017.2 hPa WNW 14.5 km/h 29 km/h 85 % 0 mm 251 W/m2
10:59 8.4 °C 6.2 °C 1017.2 hPa WNW 12.9 km/h 22.5 km/h 86 % 0 mm 287 W/m2
11:04 8.4 °C 6.2 °C 1016.8 hPa West 14.5 km/h 25.7 km/h 86 % 0 mm 308 W/m2
11:09 8.3 °C 6.3 °C 1016.8 hPa West 17.7 km/h 30.6 km/h 87 % 0 mm 353 W/m2
11:15 8.3 °C 6.4 °C 1016.8 hPa West 19.3 km/h 30.6 km/h 88 % 0 mm 243 W/m2
11:20 8.2 °C 6.3 °C 1016.8 hPa West 17.7 km/h 25.7 km/h 88 % 0 mm 264 W/m2
11:25 8.1 °C 6.4 °C 1016.8 hPa West 16.1 km/h 25.7 km/h 89 % 0.25 mm 251 W/m2
11:30 8.1 °C 6.6 °C 1016.5 hPa West 14.5 km/h 29 km/h 90 % 0.25 mm 313 W/m2
11:35 8.2 °C 6.7 °C 1016.5 hPa West 14.5 km/h 29 km/h 90 % 0.25 mm 316 W/m2
11:40 8.2 °C 6.7 °C 1016.5 hPa West 12.9 km/h 25.7 km/h 90 % 0.25 mm 334 W/m2
11:45 8.4 °C 7 °C 1016.5 hPa West 12.9 km/h 25.7 km/h 91 % 0.25 mm 325 W/m2
11:50 8.7 °C 7.3 °C 1016.1 hPa WNW 11.3 km/h 24.1 km/h 91 % 0.25 mm 504 W/m2
11:55 9 °C 7.6 °C 1016.1 hPa WNW 9.7 km/h 17.7 km/h 91 % 0.25 mm 422 W/m2
12:00 9.2 °C 7.5 °C 1016.1 hPa WNW 12.9 km/h 30.6 km/h 89 % 0.25 mm 504 W/m2
12:05 9.6 °C 7.7 °C 1016.1 hPa WNW 16.1 km/h 30.6 km/h 88 % 0.25 mm 608 W/m2
12:10 9.9 °C 7.5 °C 1016.1 hPa WNW 17.7 km/h 33.8 km/h 85 % 0.25 mm 348 W/m2
12:15 10.1 °C 7.3 °C 1016.1 hPa WNW 20.9 km/h 35.4 km/h 83 % 0.25 mm 445 W/m2
12:20 9.9 °C 6.9 °C 1016.1 hPa WNW 20.9 km/h 37 km/h 82 % 0.25 mm 367 W/m2
12:25 9.9 °C 6.8 °C 1016.1 hPa WNW 19.3 km/h 37 km/h 81 % 0 mm 476 W/m2
12:30 10.2 °C 7.3 °C 1016.1 hPa WNW 16.1 km/h 29 km/h 82 % 0 mm 480 W/m2
12:35 10.5 °C 7.2 °C 1016.1 hPa WNW 16.1 km/h 32.2 km/h 80 % 0 mm 369 W/m2
12:40 10.6 °C 6.9 °C 1015.8 hPa WNW 17.7 km/h 32.2 km/h 78 % 0 mm 425 W/m2
12:45 10.7 °C 6.8 °C 1015.8 hPa WNW 16.1 km/h 30.6 km/h 77 % 0 mm 302 W/m2
12:50 10.8 °C 6.9 °C 1015.8 hPa WNW 14.5 km/h 30.6 km/h 77 % 0 mm 265 W/m2
12:55 10.6 °C 6.9 °C 1015.8 hPa WNW 16.1 km/h 33.8 km/h 78 % 0 mm 255 W/m2
13:00 10.3 °C 6.8 °C 1015.8 hPa WNW 19.3 km/h 33.8 km/h 79 % 0 mm 200 W/m2
13:05 10.2 °C 6.7 °C 1015.8 hPa WNW 17.7 km/h 32.2 km/h 79 % 0 mm 359 W/m2
13:06 10.2 °C 6.9 °C 1015.8 hPa WNW 17.7 km/h 32.2 km/h 80 % 0 mm 320 W/m2
13:11 10.1 °C 6.8 °C 1015.8 hPa NW 16.1 km/h 30.6 km/h 80 % 0 mm 318 W/m2
13:16 10.2 °C 6.9 °C 1015.8 hPa NW 16.1 km/h 30.6 km/h 80 % 0 mm 311 W/m2
13:21 10.2 °C 6.7 °C 1015.8 hPa WNW 16.1 km/h 30.6 km/h 79 % 0 mm 281 W/m2
13:26 10.3 °C 6.8 °C 1015.8 hPa NW 14.5 km/h 30.6 km/h 79 % 0 mm 436 W/m2
13:31 10.5 °C 6.6 °C 1015.8 hPa NW 12.9 km/h 24.1 km/h 77 % 0 mm 452 W/m2
13:37 10.9 °C 6.7 °C 1015.8 hPa WNW 14.5 km/h 29 km/h 75 % 0 mm 454 W/m2
13:42 11.2 °C 6.6 °C 1015.8 hPa WNW 16.1 km/h 29 km/h 73 % 0 mm 339 W/m2
13:47 11.3 °C 6.6 °C 1015.8 hPa WNW 17.7 km/h 29 km/h 73 % 0 mm 151 W/m2
13:52 11.1 °C 7 °C 1015.8 hPa WNW 16.1 km/h 30.6 km/h 76 % 0 mm 149 W/m2
13:57 10.8 °C 7.1 °C 1015.8 hPa NW 12.9 km/h 30.6 km/h 78 % 0 mm 95 W/m2
14:02 10.4 °C 7.3 °C 1015.8 hPa NW 12.9 km/h 30.6 km/h 81 % 0.51 mm 165 W/m2
14:07 9.9 °C 7.2 °C 1015.8 hPa NW 12.9 km/h 30.6 km/h 83 % 0.51 mm 394 W/m2
14:12 9.7 °C 7.3 °C 1015.8 hPa NW 11.3 km/h 19.3 km/h 85 % 0.51 mm 153 W/m2
14:17 9.6 °C 7.4 °C 1015.8 hPa NW 11.3 km/h 19.3 km/h 86 % 0.51 mm 158 W/m2
14:22 9.5 °C 7.4 °C 1015.8 hPa WNW 11.3 km/h 19.3 km/h 87 % 0.51 mm 285 W/m2
14:27 9.6 °C 7.7 °C 1015.5 hPa WNW 11.3 km/h 29 km/h 88 % 0.51 mm 241 W/m2
14:32 9.6 °C 7.6 °C 1015.8 hPa WNW 12.9 km/h 29 km/h 87 % 0.51 mm 325 W/m2
14:37 9.7 °C 7.7 °C 1015.8 hPa WNW 14.5 km/h 22.5 km/h 87 % 0.51 mm 329 W/m2
14:42 10 °C 7.9 °C 1015.5 hPa WNW 14.5 km/h 30.6 km/h 87 % 0.51 mm 285 W/m2
14:47 10.1 °C 7.5 °C 1015.5 hPa WNW 16.1 km/h 30.6 km/h 84 % 0.51 mm 679 W/m2
14:52 10.4 °C 7.6 °C 1015.8 hPa WNW 19.3 km/h 32.2 km/h 83 % 0.51 mm 476 W/m2
14:57 10.7 °C 7.8 °C 1015.8 hPa WNW 17.7 km/h 32.2 km/h 82 % 0.51 mm 399 W/m2
15:02 10.7 °C 7.6 °C 1015.8 hPa WNW 16.1 km/h 32.2 km/h 81 % 0.25 mm 311 W/m2
15:07 10.7 °C 7.4 °C 1015.8 hPa WNW 14.5 km/h 25.7 km/h 80 % 0 mm 290 W/m2
15:12 10.7 °C 7.2 °C 1015.8 hPa WNW 14.5 km/h 25.7 km/h 79 % 0 mm 345 W/m2
15:17 10.8 °C 7.3 °C 1015.5 hPa WNW 14.5 km/h 25.7 km/h 79 % 0 mm 425 W/m2
15:22 10.9 °C 7.2 °C 1015.5 hPa WNW 14.5 km/h 25.7 km/h 78 % 0 mm 360 W/m2
15:27 11.2 °C 7.5 °C 1015.5 hPa WNW 14.5 km/h 25.7 km/h 78 % 0 mm 302 W/m2
15:32 11.3 °C 7.4 °C 1015.5 hPa WNW 12.9 km/h 24.1 km/h 77 % 0 mm 207 W/m2
15:37 11.3 °C 7.4 °C 1015.5 hPa WNW 12.9 km/h 24.1 km/h 77 % 0 mm 204 W/m2
15:42 11.2 °C 7.1 °C 1015.5 hPa WNW 14.5 km/h 24.1 km/h 76 % 0 mm 144 W/m2
15:47 11.2 °C 7.1 °C 1015.5 hPa WNW 14.5 km/h 24.1 km/h 76 % 0 mm 114 W/m2
15:52 11.1 °C 7 °C 1015.5 hPa WNW 12.9 km/h 24.1 km/h 76 % 0 mm 70 W/m2
15:57 10.9 °C 6.7 °C 1015.5 hPa WNW 12.9 km/h 24.1 km/h 75 % 0 mm 67 W/m2
16:02 10.7 °C 6.7 °C 1015.5 hPa WNW 14.5 km/h 24.1 km/h 76 % 0 mm 79 W/m2
16:07 10.6 °C 6.6 °C 1015.5 hPa WNW 14.5 km/h 24.1 km/h 76 % 0 mm 67 W/m2
16:12 10.6 °C 6.6 °C 1015.5 hPa NW 12.9 km/h 24.1 km/h 76 % 0 mm 63 W/m2
16:17 10.4 °C 6.6 °C 1015.5 hPa NW 9.7 km/h 20.9 km/h 77 % 0 mm 65 W/m2
16:22 10.4 °C 6.6 °C 1015.5 hPa NW 6.4 km/h 17.7 km/h 77 % 0 mm 42 W/m2
16:27 10.4 °C 6.9 °C 1015.5 hPa NW 8 km/h 20.9 km/h 79 % 0 mm 65 W/m2
16:28 10.3 °C 6.8 °C 1015.5 hPa NW 9.7 km/h 20.9 km/h 79 % 0 mm 67 W/m2
16:33 10.1 °C 6.8 °C 1015.5 hPa NW 12.9 km/h 25.7 km/h 80 % 0 mm 51 W/m2
16:38 9.9 °C 6.9 °C 1015.5 hPa NW 9.7 km/h 25.7 km/h 82 % 0 mm 60 W/m2
16:43 9.8 °C 7.1 °C 1015.5 hPa NW 6.4 km/h 14.5 km/h 83 % 0.25 mm 60 W/m2
16:44 9.7 °C 7.1 °C 1015.5 hPa NW 6.4 km/h 14.5 km/h 84 % 0.25 mm 60 W/m2
16:49 9.6 °C 7.2 °C 1015.5 hPa NNW 6.4 km/h 14.5 km/h 85 % 0.51 mm 49 W/m2
16:54 9.4 °C 7.2 °C 1015.5 hPa North 6.4 km/h 14.5 km/h 86 % 0.51 mm 39 W/m2
16:59 9.2 °C 7.2 °C 1015.5 hPa North 6.4 km/h 16.1 km/h 87 % 0.76 mm 39 W/m2
17:04 9.1 °C 7.4 °C 1015.5 hPa NNW 3.2 km/h 16.1 km/h 89 % 0.76 mm 105 W/m2
17:09 9.2 °C 7.5 °C 1015.5 hPa NNW 1.6 km/h 9.7 km/h 89 % 0.76 mm 123 W/m2
17:14 9.2 °C 7.7 °C 1015.1 hPa NNW 3.2 km/h 9.7 km/h 90 % 0.76 mm 149 W/m2
17:19 9.3 °C 7.7 °C 1015.1 hPa NNW 3.2 km/h 9.7 km/h 90 % 0.76 mm 181 W/m2
17:24 9.4 °C 7.8 °C 1015.1 hPa NW 3.2 km/h 9.7 km/h 90 % 0.76 mm 200 W/m2
17:29 9.5 °C 7.9 °C 1015.1 hPa NW 1.6 km/h 8 km/h 90 % 0.76 mm 197 W/m2
17:34 9.6 °C 8.1 °C 1015.1 hPa WNW 1.6 km/h 6.4 km/h 90 % 0.76 mm 278 W/m2
17:39 9.7 °C 8.1 °C 1015.1 hPa WNW 3.2 km/h 9.7 km/h 90 % 0.76 mm 264 W/m2
17:44 9.9 °C 8.5 °C 1015.1 hPa West 3.2 km/h 11.3 km/h 91 % 0.51 mm 206 W/m2
17:49 10.1 °C 8.6 °C 1015.1 hPa West 3.2 km/h 11.3 km/h 90 % 0.51 mm 127 W/m2
17:54 10.1 °C 8.4 °C 1015.1 hPa West 3.2 km/h 8 km/h 89 % 0.25 mm 142 W/m2
17:59 10.1 °C 8.4 °C 1015.1 hPa West 1.6 km/h 8 km/h 89 % 0 mm 339 W/m2
18:04 10.3 °C 8.6 °C 1015.1 hPa West 1.6 km/h 6.4 km/h 89 % 0 mm 343 W/m2
18:09 10.5 °C 8.3 °C 1015.1 hPa WNW 6.4 km/h 25.7 km/h 86 % 0 mm 107 W/m2
18:14 10.5 °C 7.7 °C 1015.1 hPa WNW 12.9 km/h 25.7 km/h 83 % 0 mm 67 W/m2
18:19 10.4 °C 7.6 °C 1015.1 hPa WNW 12.9 km/h 22.5 km/h 83 % 0 mm 83 W/m2
18:24 10.4 °C 7.6 °C 1015.1 hPa West 9.7 km/h 22.5 km/h 83 % 0 mm 120 W/m2
18:29 10.4 °C 7.6 °C 1014.8 hPa West 9.7 km/h 19.3 km/h 83 % 0 mm 192 W/m2
18:34 10.4 °C 7.4 °C 1014.8 hPa West 12.9 km/h 29 km/h 82 % 0 mm 113 W/m2
18:39 10.5 °C 7.4 °C 1014.8 hPa West 16.1 km/h 33.8 km/h 81 % 0 mm 114 W/m2
18:44 10.6 °C 7.5 °C 1014.8 hPa WNW 16.1 km/h 33.8 km/h 81 % 0 mm 146 W/m2
18:49 10.6 °C 7.1 °C 1014.8 hPa WNW 17.7 km/h 32.2 km/h 79 % 0 mm 167 W/m2
18:54 10.7 °C 6.8 °C 1014.8 hPa WNW 19.3 km/h 37 km/h 77 % 0 mm 202 W/m2
19:00 10.8 °C 6.9 °C 1014.8 hPa WNW 17.7 km/h 37 km/h 77 % 0 mm 42 W/m2
19:04 10.7 °C 6.8 °C 1014.8 hPa WNW 14.5 km/h 29 km/h 77 % 0 mm 33 W/m2
19:09 10.6 °C 6.9 °C 1015.1 hPa WNW 14.5 km/h 25.7 km/h 78 % 0 mm 37 W/m2
19:15 10.4 °C 6.7 °C 1015.1 hPa WNW 14.5 km/h 25.7 km/h 78 % 0 mm 25 W/m2
19:19 10.3 °C 6.4 °C 1015.1 hPa WNW 14.5 km/h 30.6 km/h 77 % 0 mm 16 W/m2
19:25 10.2 °C 6.6 °C 1015.5 hPa WNW 12.9 km/h 30.6 km/h 78 % 0 mm 18 W/m2
19:29 10.1 °C 6.8 °C 1015.8 hPa NW 14.5 km/h 25.7 km/h 80 % 0 mm 7 W/m2
19:35 9.5 °C 6.6 °C 1015.8 hPa NNW 14.5 km/h 24.1 km/h 82 % 0.51 mm 7 W/m2
19:40 8.9 °C 6.3 °C 1015.8 hPa North 11.3 km/h 22.5 km/h 84 % 1.02 mm 5 W/m2
19:45 8.6 °C 6.6 °C 1015.8 hPa NNE 8 km/h 16.1 km/h 87 % 1.27 mm 7 W/m2
19:50 8.3 °C 6.4 °C 1016.1 hPa NNE 8 km/h 16.1 km/h 88 % 1.27 mm 7 W/m2
19:55 8.2 °C 6.5 °C 1015.8 hPa North 8 km/h 12.9 km/h 89 % 1.52 mm 0 W/m2
20:00 8.2 °C 6.7 °C 1015.8 hPa NNW 6.4 km/h 12.9 km/h 90 % 1.52 mm 0 W/m2
20:05 8.2 °C 6.7 °C 1016.1 hPa NNW 3.2 km/h 9.7 km/h 90 % 1.52 mm 0 W/m2
20:10 8.1 °C 6.7 °C 1016.1 hPa North 3.2 km/h 11.3 km/h 91 % 1.52 mm 0 W/m2
20:15 8 °C 6.6 °C 1016.1 hPa North 3.2 km/h 11.3 km/h 91 % 1.52 mm 0 W/m2
20:20 8 °C 6.6 °C 1016.1 hPa North 1.6 km/h 8 km/h 91 % 1.52 mm 0 W/m2
20:21 7.9 °C 6.5 °C 1016.1 hPa North 1.6 km/h 8 km/h 91 % 1.52 mm 0 W/m2
20:26 7.9 °C 6.5 °C 1016.1 hPa NNE 3.2 km/h 11.3 km/h 91 % 1.52 mm 0 W/m2
20:31 7.8 °C 6.4 °C 1016.1 hPa NNE 1.6 km/h 11.3 km/h 91 % 1.02 mm 0 W/m2
20:36 7.8 °C 6.4 °C 1016.1 hPa Calm   6.4 km/h 91 % 0.51 mm 0 W/m2
20:41 7.7 °C 6.3 °C 1016.1 hPa Calm   1.6 km/h 91 % 0.25 mm 0 W/m2
20:46 7.7 °C 6.5 °C 1016.5 hPa Calm   1.6 km/h 92 % 0.25 mm 0 W/m2
20:51 7.7 °C 6.5 °C 1016.5 hPa Calm     92 % 0 mm 0 W/m2
20:56 7.7 °C 6.5 °C 1016.5 hPa Calm     92 % 0 mm 0 W/m2
21:01 7.7 °C 6.5 °C 1016.5 hPa Calm   1.6 km/h 92 % 0.25 mm 0 W/m2
21:06 7.7 °C 6.5 °C 1016.5 hPa Calm   1.6 km/h 92 % 0.25 mm 0 W/m2
21:11 7.7 °C 6.7 °C 1016.8 hPa Calm     93 % 0.25 mm 0 W/m2
21:16 7.7 °C 6.7 °C 1016.8 hPa Calm   1.6 km/h 93 % 0.51 mm 0 W/m2
21:21 7.8 °C 6.7 °C 1016.5 hPa Calm   1.6 km/h 93 % 0.51 mm 0 W/m2
21:26 7.8 °C 6.7 °C 1016.8 hPa Calm     93 % 0.51 mm 0 W/m2
21:31 7.7 °C 6.7 °C 1016.8 hPa Calm     93 % 0.51 mm 0 W/m2
21:36 7.8 °C 6.9 °C 1016.8 hPa Calm     94 % 0.51 mm 0 W/m2
21:41 7.8 °C 6.9 °C 1016.5 hPa Calm     94 % 0.51 mm 0 W/m2
21:46 7.8 °C 6.9 °C 1016.8 hPa Calm     94 % 0.51 mm 0 W/m2
21:52 7.8 °C 6.9 °C 1016.8 hPa Calm     94 % 0.51 mm 0 W/m2
21:57 7.7 °C 6.8 °C 1016.8 hPa Calm   3.2 km/h 94 % 0.51 mm 0 W/m2
22:02 7.7 °C 6.8 °C 1016.8 hPa North 3.2 km/h 12.9 km/h 94 % 0.51 mm 0 W/m2
22:07 7.7 °C 6.8 °C 1016.8 hPa NNE 6.4 km/h 16.1 km/h 94 % 0.51 mm 0 W/m2
22:12 7.6 °C 6.7 °C 1016.8 hPa NE 4.8 km/h 16.1 km/h 94 % 0.51 mm 0 W/m2
22:17 7.5 °C 6.4 °C 1016.8 hPa NE 3.2 km/h 9.7 km/h 93 % 0.51 mm 0 W/m2
22:22 7.4 °C 6.3 °C 1016.8 hPa NE 1.6 km/h 8 km/h 93 % 0.51 mm 0 W/m2
22:27 7.3 °C 6.2 °C 1016.8 hPa Calm   3.2 km/h 93 % 0.25 mm 0 W/m2
22:32 7.3 °C 6.4 °C 1016.8 hPa Calm   3.2 km/h 94 % 0.25 mm 0 W/m2
22:37 7.3 °C 6.4 °C 1016.8 hPa Calm   1.6 km/h 94 % 0.25 mm 0 W/m2
22:42 7.3 °C 6.4 °C 1016.8 hPa Calm   1.6 km/h 94 % 0.25 mm 0 W/m2
22:47 7.3 °C 6.4 °C 1017.2 hPa Calm   3.2 km/h 94 % 0.51 mm 0 W/m2
22:52 7.3 °C 6.4 °C 1016.8 hPa North 1.6 km/h 4.8 km/h 94 % 0.51 mm 0 W/m2
22:57 7.3 °C 6.4 °C 1017.2 hPa NNW 1.6 km/h 4.8 km/h 94 % 0.51 mm 0 W/m2
23:02 7.4 °C 6.5 °C 1016.8 hPa NNW 1.6 km/h 8 km/h 94 % 0.51 mm 0 W/m2
23:07 7.3 °C 6.4 °C 1017.2 hPa NW 1.6 km/h 8 km/h 94 % 0.25 mm 0 W/m2
23:12 7.3 °C 6.4 °C 1016.8 hPa NNW 1.6 km/h 8 km/h 94 % 0.51 mm 0 W/m2
23:17 7.3 °C 6.4 °C 1017.2 hPa Calm   3.2 km/h 94 % 0.51 mm 0 W/m2
23:22 7.3 °C 6.4 °C 1017.2 hPa Calm   3.2 km/h 94 % 0.51 mm 0 W/m2
23:27 7.3 °C 6.4 °C 1017.2 hPa Calm   3.2 km/h 94 % 0.51 mm 0 W/m2
23:32 7.2 °C 6.3 °C 1017.2 hPa Calm   3.2 km/h 94 % 0.51 mm 0 W/m2
23:37 7.2 °C 6.3 °C 1017.2 hPa NNW 1.6 km/h 4.8 km/h 94 % 0.51 mm 0 W/m2
23:42 7.1 °C 6.2 °C 1017.2 hPa NNW 1.6 km/h 4.8 km/h 94 % 0.51 mm 0 W/m2
23:47 7.1 °C 6.2 °C 1017.2 hPa Calm   4.8 km/h 94 % 0.25 mm 0 W/m2
23:52 7.1 °C 6.3 °C 1017.2 hPa Calm   1.6 km/h 95 % 0.25 mm 0 W/m2
23:57 7.1 °C 6.3 °C 1017.2 hPa Calm   1.6 km/h 95 % 0.25 mm 0 W/m2
Delerius-Weather
Compliments of Weather Underground - 2.25 mb

Data updates at regular intervals.